Strona główna
METAR-TAF:

METAR-TAF

Lotnisko :

Port lotniczy Dakar

Dakar, Senegal

Szerokość geograficzna: 14-44N, Długość geograficzna: 017-30W, wysokość: 27 m

Aktualna obserwacja pogody

Raport powstał 26 minut temu, godzina 22:00 UTC
Wiatr 10 kt od północny wschód
Temperatura 23°C
Wilgotność 78%
Ciśnienie 1014 hPa
Widzialność: 8000 m

METAR: GOOY 082200Z 04010KT 8000 NSC 23/19 Q1014

czas: 22:26 (22:26 UTC)

Prognoza

Raport powstał 4 godziny i 56 minut temu, godzina 17:30 UTC
Prognoza ważna od 08 godzina 18 UTC do 09 godzina 24 UTC
Wiatr 10 kt od północno-północny wschód
Widzialność 10 km lub więcej
Brak chmur poniżej 1500 m i brak chmur cumulonimbus

TAF: GOOY 081730Z 0818/0924 03010KT CAVOK

Obserwacja i prognoza pogody dla ponad 4000 lotnisk (raport METAR i TAF).

Dostępne stacje oznaczono żółtymi i czerwonymi punktami na mapie.

Najedź kursorem aby zobaczyć nazwę stacji.

Kliknij aby zobaczyć obserwacje i prognozy pogody.

Aby zmienić mapę: kliknij na zielony przycisk z czarnym krzyżykiem, aby powiększyć; na zielony przycisk z myślnikiem, aby pomniejszyć; na zielone strzałki, aby przejść do map sąsiednich.


METAR-TAF: